Time;durP1;ratioP1;P1;durP2;ratioP2;P2;SDS_P1;SDS_P2;PMS_P1;PMS_P2;Temp;Humidity;BMP_temperature;BMP_pressure;BME280_temperature;BME280_humidity;BME280_pressure;Samples;Min_cycle;Max_cycle;Signal;HPM_P1;HPM_P2
2024/01/23 00:01:06;;;;;;;16.65;3.55;;;;;;;6.95;100.00;101683.50;6086013;19;20010;-72
2024/01/23 00:03:11;;;;;;;16.30;3.47;;;;;;;6.92;100.00;101693.94;6084835;19;20021;-72
2024/01/23 00:05:16;;;;;;;13.70;3.17;;;;;;;6.91;100.00;101696.59;6085078;19;20018;-73
2024/01/23 00:07:24;;;;;;;14.20;3.30;;;;;;;6.89;100.00;101717.50;6084916;19;20006;-71
2024/01/23 00:09:27;;;;;;;16.05;3.40;;;;;;;6.93;100.00;101718.38;6082900;19;20007;-71
2024/01/23 00:11:32;;;;;;;16.60;3.08;;;;;;;6.96;100.00;101716.56;6083430;19;20494;-71
2024/01/23 00:13:40;;;;;;;22.75;4.47;;;;;;;6.93;100.00;101732.28;6085167;19;20011;-71
2024/01/23 00:15:45;;;;;;;14.75;4.40;;;;;;;6.93;100.00;101728.81;6084864;19;20010;-71
2024/01/23 00:17:50;;;;;;;16.48;2.97;;;;;;;6.93;100.00;101737.50;6084353;19;20032;-71
2024/01/23 00:19:53;;;;;;;6.75;2.50;;;;;;;6.90;100.00;101748.00;6083491;19;20010;-71
2024/01/23 00:22:02;;;;;;;12.60;3.22;;;;;;;6.89;100.00;101730.56;6083831;19;20379;-72
2024/01/23 00:24:11;;;;;;;12.35;3.55;;;;;;;6.88;100.00;101723.63;6082648;19;20094;-71
2024/01/23 00:26:16;;;;;;;12.57;3.03;;;;;;;6.73;100.00;101740.31;6081544;19;20030;-72
2024/01/23 00:28:23;;;;;;;16.60;2.38;;;;;;;6.79;100.00;101744.63;6085677;19;20136;-72
2024/01/23 00:30:28;;;;;;;12.98;3.60;;;;;;;6.81;100.00;101745.47;6090146;19;20131;-72
2024/01/23 00:32:33;;;;;;;2.95;1.92;;;;;;;6.70;100.00;101745.59;6088790;19;20014;-73
2024/01/23 00:34:38;;;;;;;18.67;2.78;;;;;;;6.73;100.00;101755.13;6088623;19;20048;-74
2024/01/23 00:36:43;;;;;;;11.75;2.70;;;;;;;6.90;100.00;101753.22;6088497;19;20527;-72
2024/01/23 00:38:50;;;;;;;11.98;2.53;;;;;;;6.78;100.00;101762.03;6088255;19;20039;-70
2024/01/23 00:41:00;;;;;;;12.45;2.83;;;;;;;6.72;100.00;101763.88;6086866;19;20045;-72
2024/01/23 00:43:06;;;;;;;9.48;3.17;;;;;;;6.66;100.00;101763.91;6089716;19;20010;-70
2024/01/23 00:45:11;;;;;;;3.20;1.88;;;;;;;6.58;100.00;101775.31;6087784;19;20477;-70
2024/01/23 00:47:17;;;;;;;10.13;2.60;;;;;;;6.63;100.00;101784.81;6089548;19;20014;-70
2024/01/23 00:49:20;;;;;;;7.38;1.95;;;;;;;6.70;100.00;101776.06;6087183;19;20743;-69
2024/01/23 00:51:26;;;;;;;9.25;3.05;;;;;;;6.58;100.00;101777.03;6090690;19;20017;-71
2024/01/23 00:53:31;;;;;;;17.60;3.28;;;;;;;6.63;100.00;101763.94;6086661;19;20043;-73
2024/01/23 00:55:36;;;;;;;14.57;3.17;;;;;;;6.66;100.00;101776.97;6089291;19;20329;-72
2024/01/23 00:57:44;;;;;;;10.75;3.40;;;;;;;6.69;100.00;101771.69;6089635;19;20070;-72
2024/01/23 00:59:50;;;;;;;11.32;2.33;;;;;;;6.66;100.00;101769.13;6089635;19;20010;-72
2024/01/23 01:01:55;;;;;;;15.32;3.22;;;;;;;6.55;100.00;101769.22;6091228;19;20038;-72
2024/01/23 01:04:00;;;;;;;21.88;3.33;;;;;;;6.53;100.00;101790.16;6087815;19;20039;-70
2024/01/23 01:06:06;;;;;;;10.88;3.05;;;;;;;6.65;100.00;101797.00;6087618;19;20009;-72
2024/01/23 01:08:11;;;;;;;17.15;3.55;;;;;;;6.53;100.00;101794.47;6086691;19;20010;-73
2024/01/23 01:10:16;;;;;;;15.65;2.60;;;;;;;6.62;100.00;101796.16;6084581;19;20090;-71
2024/01/23 01:12:21;;;;;;;12.23;2.75;;;;;;;6.49;100.00;101798.88;6088316;19;20021;-74
2024/01/23 01:14:29;;;;;;;10.85;2.63;;;;;;;6.55;100.00;101811.88;6087677;19;20004;-73
2024/01/23 01:16:32;;;;;;;15.45;2.63;;;;;;;6.51;100.00;101817.16;6088118;19;20011;-73
2024/01/23 01:18:39;;;;;;;;;;;;;;;6.50;100.00;101816.28;6090305;19;20479;-72
2024/01/23 01:20:48;;;;;;;9.10;2.38;;;;;;;6.57;100.00;101822.31;6088075;19;20015;-71
2024/01/23 01:22:51;;;;;;;7.55;3.20;;;;;;;6.53;100.00;101823.19;6090354;19;20007;-73
2024/01/23 01:24:56;;;;;;;11.07;3.20;;;;;;;6.49;100.00;101832.81;6088173;19;20122;-71
2024/01/23 01:27:01;;;;;;;12.93;2.95;;;;;;;6.47;100.00;101829.34;6086584;19;20397;-73
2024/01/23 01:29:06;;;;;;;14.95;3.13;;;;;;;6.45;100.00;101825.91;6087829;19;20006;-73
2024/01/23 01:31:14;;;;;;;11.15;2.65;;;;;;;6.42;100.00;101836.34;6087681;19;20078;-71
2024/01/23 01:33:19;;;;;;;12.70;2.78;;;;;;;6.41;100.00;101833.75;6084587;19;20011;-71
2024/01/23 01:35:24;;;;;;;12.93;3.25;;;;;;;6.43;100.00;101838.09;6086986;19;20062;-73
2024/01/23 01:37:29;;;;;;;10.80;3.03;;;;;;;6.32;100.00;101850.38;6089035;19;20010;-73
2024/01/23 01:39:34;;;;;;;7.55;2.38;;;;;;;6.36;100.00;101844.22;6085694;19;20007;-71
2024/01/23 01:41:40;;;;;;;11.52;3.38;;;;;;;6.38;100.00;101852.94;6088055;19;20010;-72
2024/01/23 01:43:45;;;;;;;14.95;4.80;;;;;;;6.30;100.00;101854.72;6088631;19;20030;-72
2024/01/23 01:46:00;;;;;;;11.52;3.28;;;;;;;6.32;100.00;101861.66;6089010;19;20593;-71
2024/01/23 01:48:09;;;;;;;9.27;2.28;;;;;;;6.25;100.00;101869.53;6087789;19;20023;-72
2024/01/23 01:50:14;;;;;;;19.73;3.70;;;;;;;6.29;100.00;101861.69;6086490;19;20007;-72
2024/01/23 01:52:19;;;;;;;18.85;4.30;;;;;;;6.35;100.00;101863.41;6083773;19;20007;-72
2024/01/23 01:54:27;;;;;;;22.70;3.95;;;;;;;6.31;100.00;101867.75;6082377;19;20035;-71
2024/01/23 01:56:35;;;;;;;15.23;4.03;;;;;;;6.34;100.00;101870.34;6086019;19;20026;-72
2024/01/23 01:58:42;;;;;;;10.15;3.10;;;;;;;6.24;100.00;101879.13;6085615;19;20023;-72
2024/01/23 02:00:50;;;;;;;12.15;3.05;;;;;;;6.22;100.00;101886.09;6087433;19;20011;-72
2024/01/23 02:02:57;;;;;;;12.43;4.25;;;;;;;6.34;100.00;101882.53;6088117;19;20019;-72
2024/01/23 02:05:05;;;;;;;11.93;2.90;;;;;;;6.26;100.00;101873.88;6083355;19;20011;-72
2024/01/23 02:07:11;;;;;;;12.95;2.55;;;;;;;6.25;100.00;101893.91;6086130;19;20046;-72
2024/01/23 02:09:16;;;;;;;10.50;2.58;;;;;;;6.20;100.00;101877.41;6085639;19;20016;-72
2024/01/23 02:11:21;;;;;;;12.38;3.58;;;;;;;6.26;100.00;101905.19;6085264;19;20021;-72
2024/01/23 02:13:27;;;;;;;8.30;2.92;;;;;;;6.25;100.00;101913.91;6085256;19;20094;-72
2024/01/23 02:15:32;;;;;;;10.13;2.10;;;;;;;6.18;100.00;101912.22;6082570;19;20018;-73
2024/01/23 02:17:39;;;;;;;10.00;3.25;;;;;;;6.18;100.00;101920.91;6083130;19;20612;-72
2024/01/23 02:19:44;;;;;;;12.75;2.58;;;;;;;6.19;100.00;101914.81;6086748;19;20023;-72
2024/01/23 02:21:49;;;;;;;9.20;2.83;;;;;;;6.15;100.00;101931.34;6083204;19;20482;-72
2024/01/23 02:23:56;;;;;;;13.05;3.03;;;;;;;6.24;100.00;101933.03;6085550;19;20494;-71
2024/01/23 02:26:02;;;;;;;16.30;3.15;;;;;;;6.23;100.00;101926.09;6083611;19;20027;-71
2024/01/23 02:28:09;;;;;;;11.93;2.45;;;;;;;6.19;100.00;101935.69;6086811;19;20014;-71
2024/01/23 02:30:15;;;;;;;7.80;2.30;;;;;;;6.23;100.00;101946.97;6085376;19;20139;-70
2024/01/23 02:32:20;;;;;;;12.32;3.38;;;;;;;6.27;100.00;101959.16;6085660;19;20007;-71
2024/01/23 02:34:25;;;;;;;11.73;2.70;;;;;;;6.26;100.00;101957.41;6086529;19;20372;-71
2024/01/23 02:36:36;;;;;;;8.70;2.47;;;;;;;6.22;100.00;101960.91;6082828;19;20003;-70
2024/01/23 02:38:41;;;;;;;5.55;2.28;;;;;;;6.15;100.00;101966.16;6084347;19;20014;-70
2024/01/23 02:40:49;;;;;;;14.23;3.50;;;;;;;6.18;100.00;101967.88;6083313;19;20010;-71
2024/01/23 02:42:51;;;;;;;8.75;2.85;;;;;;;6.26;100.00;101967.84;6084274;19;20034;-70
2024/01/23 02:44:56;;;;;;;11.70;3.75;;;;;;;6.18;100.00;101980.94;6083510;19;20010;-70
2024/01/23 02:47:01;;;;;;;6.72;2.50;;;;;;;6.20;100.00;101965.28;6085544;19;20068;-73
2024/01/23 02:49:06;;;;;;;14.15;2.88;;;;;;;6.22;100.00;101972.22;6084564;19;20478;-73
2024/01/23 02:51:11;;;;;;;16.10;3.15;;;;;;;6.18;100.00;101983.53;6085145;19;20064;-72
2024/01/23 02:53:16;;;;;;;8.23;2.38;;;;;;;6.19;100.00;101972.25;6079663;19;20007;-72
2024/01/23 02:55:19;;;;;;;23.70;3.00;;;;;;;6.16;100.00;101977.44;6082825;19;20031;-72
2024/01/23 02:57:31;;;;;;;9.63;2.88;;;;;;;6.15;100.00;101986.16;6082195;19;20019;-70
2024/01/23 02:59:36;;;;;;;10.70;2.83;;;;;;;6.18;100.00;102001.81;6081448;19;21180;-74
2024/01/23 03:01:41;;;;;;;15.43;2.65;;;;;;;6.22;100.00;102003.53;6084128;19;20014;-73
2024/01/23 03:03:46;;;;;;;10.27;3.13;;;;;;;6.16;100.00;102011.38;6085845;19;20094;-73
2024/01/23 03:05:51;;;;;;;18.92;3.08;;;;;;;6.11;100.00;102013.16;6083705;19;20589;-73
2024/01/23 03:07:56;;;;;;;13.65;3.55;;;;;;;6.05;100.00;102019.25;6084006;19;20018;-73
2024/01/23 03:09:59;;;;;;;13.32;3.45;;;;;;;5.93;100.00;102024.47;6086342;19;20018;-72
2024/01/23 03:12:15;;;;;;;7.72;2.80;;;;;;;5.95;100.00;102030.59;6082653;19;20011;-71
2024/01/23 03:14:23;;;;;;;9.38;2.55;;;;;;;6.02;100.00;102032.28;6083323;19;20006;-71
2024/01/23 03:16:31;;;;;;;9.00;3.67;;;;;;;6.05;100.00;102041.84;6085437;19;20365;-71
2024/01/23 03:18:36;;;;;;;11.25;2.60;;;;;;;6.02;100.00;102061.00;6084818;19;20020;-72
2024/01/23 03:20:41;;;;;;;11.57;2.85;;;;;;;6.08;100.00;102050.56;6083554;19;20023;-71
2024/01/23 03:22:46;;;;;;;11.63;3.20;;;;;;;6.01;100.00;102050.59;6084803;19;20341;-72
2024/01/23 03:24:51;;;;;;;18.35;3.55;;;;;;;5.96;100.00;102055.81;6085290;19;20050;-71
2024/01/23 03:26:56;;;;;;;11.82;2.88;;;;;;;5.96;100.00;102047.97;6085254;19;20025;-71
2024/01/23 03:29:02;;;;;;;12.98;3.55;;;;;;;5.93;100.00;102061.00;6085382;19;20485;-71
2024/01/23 03:31:09;;;;;;;15.60;3.63;;;;;;;5.91;100.00;102057.53;6085326;19;20014;-71
2024/01/23 03:33:14;;;;;;;5.82;2.45;;;;;;;5.88;100.00;102055.78;6084247;19;20050;-71
2024/01/23 03:35:17;;;;;;;15.43;2.42;;;;;;;5.90;100.00;102058.41;6080435;19;20027;-71
2024/01/23 03:37:22;;;;;;;8.35;3.35;;;;;;;5.87;100.00;102061.88;6082955;19;20018;-73
2024/01/23 03:39:25;;;;;;;11.38;3.13;;;;;;;5.89;100.00;102073.16;6086362;19;20491;-72
2024/01/23 03:41:30;;;;;;;11.43;3.10;;;;;;;5.90;100.00;102076.66;6084396;19;20010;-72
2024/01/23 03:43:33;;;;;;;6.30;2.15;;;;;;;5.97;100.00;102075.78;6085698;19;20018;-73
2024/01/23 03:45:37;;;;;;;10.82;3.92;;;;;;;5.88;100.00;102084.47;6084152;19;20010;-73
2024/01/23 03:47:45;;;;;;;5.50;2.53;;;;;;;5.86;100.00;102083.59;6085717;19;20663;-73
2024/01/23 03:49:50;;;;;;;4.57;1.60;;;;;;;5.88;100.00;102089.69;6083841;19;20007;-71
2024/01/23 03:51:56;;;;;;;6.85;2.60;;;;;;;5.82;100.00;102102.75;6085090;19;20047;-70
2024/01/23 03:53:58;;;;;;;12.20;3.00;;;;;;;5.87;100.00;102106.22;6083899;19;20035;-69
2024/01/23 03:56:07;;;;;;;11.30;2.92;;;;;;;5.87;100.00;102121.00;6083793;19;20074;-70
2024/01/23 03:58:12;;;;;;;13.27;3.25;;;;;;;5.84;100.00;102115.78;6086713;19;20038;-70
2024/01/23 04:00:18;;;;;;;10.20;3.08;;;;;;;5.88;100.00;102122.75;6084152;19;20035;-70
2024/01/23 04:02:25;;;;;;;12.85;4.22;;;;;;;5.88;100.00;102128.81;6088774;19;20487;-71
2024/01/23 04:04:33;;;;;;;10.10;2.55;;;;;;;5.85;100.00;102135.78;6087775;19;20037;-73
2024/01/23 04:06:35;;;;;;;13.88;3.33;;;;;;;5.83;100.00;102127.97;6092233;19;20377;-73
2024/01/23 04:08:40;;;;;;;12.70;3.17;;;;;;;5.82;100.00;102128.84;6088178;19;20006;-72
2024/01/23 04:10:45;;;;;;;7.28;2.40;;;;;;;5.79;100.00;102136.63;6087453;19;20002;-72
2024/01/23 04:12:50;;;;;;;8.52;2.33;;;;;;;5.85;100.00;102128.84;6089289;19;20011;-72
2024/01/23 04:14:55;;;;;;;8.93;2.70;;;;;;;5.86;100.00;102134.91;6090797;19;20003;-73
2024/01/23 04:17:00;;;;;;;15.30;2.80;;;;;;;5.90;100.00;102134.06;6091898;19;20010;-71
2024/01/23 04:19:03;;;;;;;11.43;3.28;;;;;;;5.89;100.00;102145.34;6090538;19;20082;-70
2024/01/23 04:21:11;;;;;;;13.88;2.78;;;;;;;5.82;100.00;102154.03;6088240;19;20567;-71
2024/01/23 04:23:16;;;;;;;9.48;2.30;;;;;;;5.85;100.00;102159.28;6087034;19;20498;-70
2024/01/23 04:25:22;;;;;;;11.02;2.60;;;;;;;5.85;100.00;102164.50;6088800;19;20014;-71
2024/01/23 04:27:26;;;;;;;10.48;2.90;;;;;;;5.92;100.00;102164.50;6086530;19;20032;-71
2024/01/23 04:29:31;;;;;;;9.05;2.78;;;;;;;5.84;100.00;102186.22;6090158;19;20031;-74
2024/01/23 04:31:36;;;;;;;6.93;2.78;;;;;;;5.98;100.00;102179.31;6089598;19;20011;-73
2024/01/23 04:33:41;;;;;;;19.70;2.92;;;;;;;5.94;100.00;102195.81;6088922;19;20010;-73
2024/01/23 04:35:46;;;;;;;11.80;2.85;;;;;;;5.98;100.00;102199.28;6090912;19;20094;-73
2024/01/23 04:37:54;;;;;;;15.23;3.13;;;;;;;5.94;100.00;102207.13;6088688;19;20044;-73
2024/01/23 04:39:56;;;;;;;4.97;2.58;;;;;;;6.08;100.00;102199.31;6087436;19;20269;-73
2024/01/23 04:42:01;;;;;;;8.75;2.58;;;;;;;5.99;100.00;102201.06;6090873;19;20010;-75
2024/01/23 04:44:09;;;;;;;15.38;3.50;;;;;;;6.01;100.00;102197.56;6088235;19;20043;-73
2024/01/23 04:46:14;;;;;;;10.02;2.83;;;;;;;5.97;100.00;102211.47;6090030;19;20018;-71
2024/01/23 04:48:18;;;;;;;12.75;3.17;;;;;;;5.96;100.00;102207.13;6090221;19;20019;-71
2024/01/23 04:50:23;;;;;;;8.93;3.85;;;;;;;5.89;100.00;102221.00;6088452;19;20016;-72
2024/01/23 04:52:28;;;;;;;12.70;3.20;;;;;;;5.83;100.00;102221.00;6086202;19;20010;-72
2024/01/23 04:54:41;;;;;;;10.32;2.50;;;;;;;5.73;100.00;102218.38;6086472;19;20028;-71
2024/01/23 04:56:47;;;;;;;11.73;2.50;;;;;;;5.83;100.00;102224.47;6084276;19;20028;-70
2024/01/23 04:58:49;;;;;;;8.10;2.85;;;;;;;5.92;100.00;102224.50;6089650;19;20010;-70
2024/01/23 05:00:54;;;;;;;9.65;2.45;;;;;;;5.90;100.00;102226.22;6087220;19;20745;-70
2024/01/23 05:03:01;;;;;;;14.95;3.05;;;;;;;5.90;100.00;102228.84;6089177;19;20019;-72
2024/01/23 05:05:08;;;;;;;13.70;2.47;;;;;;;5.85;100.00;102234.94;6087397;19;20020;-72
2024/01/23 05:07:13;;;;;;;19.25;3.53;;;;;;;5.86;100.00;102228.81;6088073;19;20014;-72
2024/01/23 05:09:19;;;;;;;15.30;3.45;;;;;;;5.86;100.00;102232.31;6086722;19;20485;-70
2024/01/23 05:11:26;;;;;;;10.30;2.80;;;;;;;5.83;100.00;102229.69;6086185;19;20066;-70
2024/01/23 05:13:34;;;;;;;12.85;2.92;;;;;;;5.80;100.00;102236.66;6084082;19;20039;-71
2024/01/23 05:15:39;;;;;;;14.20;3.88;;;;;;;5.87;100.00;102231.44;6087624;19;20300;-70
2024/01/23 05:17:45;;;;;;;13.57;3.63;;;;;;;5.92;100.00;102244.47;6085375;19;20692;-70
2024/01/23 05:19:51;;;;;;;7.97;2.60;;;;;;;5.83;100.00;102234.91;6083900;19;19999;-70
2024/01/23 05:21:56;;;;;;;17.90;4.03;;;;;;;6.02;100.00;102234.97;6084687;19;20376;-70
2024/01/23 05:24:01;;;;;;;6.78;2.13;;;;;;;5.92;100.00;102244.47;6085522;19;20011;-71
2024/01/23 05:26:06;;;;;;;14.57;2.78;;;;;;;6.02;100.00;102248.88;6083019;19;20002;-70
2024/01/23 05:28:14;;;;;;;10.13;2.85;;;;;;;5.93;100.00;102251.47;6083474;19;20014;-74
2024/01/23 05:30:17;;;;;;;11.38;2.42;;;;;;;5.91;100.00;102259.28;6085087;19;20003;-75
2024/01/23 05:32:26;;;;;;;5.65;1.67;;;;;;;5.82;100.00;102269.69;6086485;19;20070;-75
2024/01/23 05:34:29;;;;;;;12.02;2.85;;;;;;;5.91;100.00;102290.56;6087619;19;20016;-74
2024/01/23 05:36:34;;;;;;;;;;;;;;;5.84;100.00;102277.50;6086918;19;20721;-72
2024/01/23 05:38:39;;;;;;;9.38;2.58;;;;;;;5.81;100.00;102283.59;6085160;19;19986;-72
2024/01/23 05:40:44;;;;;;;8.30;2.97;;;;;;;5.76;100.00;102293.16;6085924;19;20089;-73
2024/01/23 05:42:49;;;;;;;16.48;2.45;;;;;;;5.75;100.00;102288.81;6085852;19;20027;-73
2024/01/23 05:44:54;;;;;;;10.07;2.47;;;;;;;5.74;100.00;102294.91;6087536;19;20459;-74
2024/01/23 05:46:59;;;;;;;6.82;3.33;;;;;;;5.69;100.00;102300.09;6081567;19;20023;-72
2024/01/23 05:49:04;;;;;;;17.30;3.97;;;;;;;5.64;100.00;102291.38;6083151;19;20010;-73
2024/01/23 05:51:09;;;;;;;11.20;3.15;;;;;;;5.66;100.00;102294.88;6083566;19;20010;-71
2024/01/23 05:53:14;;;;;;;7.75;2.65;;;;;;;5.57;100.00;102292.22;6081657;19;20057;-72
2024/01/23 05:55:19;;;;;;;8.25;2.70;;;;;;;5.64;100.00;102306.16;6080330;19;20545;-72
2024/01/23 05:57:24;;;;;;;8.68;2.85;;;;;;;5.77;100.00;102312.31;6082793;19;20039;-72
2024/01/23 05:59:30;;;;;;;15.05;3.63;;;;;;;5.64;100.00;102316.59;6080714;19;20117;-75
2024/01/23 06:01:38;;;;;;;11.02;3.22;;;;;;;5.57;100.00;102309.59;6083238;19;20051;-73
2024/01/23 06:03:44;;;;;;;15.15;3.30;;;;;;;5.58;100.00;102317.44;6081265;19;20023;-74
2024/01/23 06:05:49;;;;;;;14.20;2.95;;;;;;;5.64;100.00;102327.91;6084355;19;20448;-73
2024/01/23 06:07:54;;;;;;;9.95;2.78;;;;;;;5.60;100.00;102322.66;6085103;19;20046;-73
2024/01/23 06:10:00;;;;;;;9.55;3.30;;;;;;;5.63;100.00;102338.31;6084289;19;20003;-73
2024/01/23 06:12:05;;;;;;;6.95;2.30;;;;;;;5.52;100.00;102333.06;6084608;19;20611;-72
2024/01/23 06:14:11;;;;;;;11.45;3.88;;;;;;;5.57;100.00;102340.91;6082355;19;20018;-72
2024/01/23 06:16:17;;;;;;;11.77;3.08;;;;;;;5.41;100.00;102329.53;6085289;19;20011;-72
2024/01/23 06:18:26;;;;;;;10.32;2.38;;;;;;;5.56;100.00;102347.00;6083688;19;20031;-72
2024/01/23 06:20:31;;;;;;;10.00;2.15;;;;;;;5.49;100.00;102349.56;6082752;19;20006;-74
2024/01/23 06:22:34;;;;;;;10.43;2.83;;;;;;;5.47;100.00;102363.44;6082741;19;20025;-74
2024/01/23 06:24:40;;;;;;;;;;;;;;;5.43;100.00;102362.56;6082826;19;20488;-70
2024/01/23 06:26:46;;;;;;;9.23;3.25;;;;;;;5.47;100.00;102372.13;6082201;19;19925;-73
2024/01/23 06:28:48;;;;;;;15.40;3.50;;;;;;;5.42;100.00;102371.22;6085793;19;20041;-71
2024/01/23 06:30:53;;;;;;;22.20;3.45;;;;;;;5.39;100.00;102383.38;6086949;19;20003;-73
2024/01/23 06:33:00;;;;;;;8.40;2.88;;;;;;;5.38;100.00;102376.44;6082669;19;20009;-73
2024/01/23 06:35:09;;;;;;;13.23;3.60;;;;;;;5.40;100.00;102380.81;6082872;19;20467;-71
2024/01/23 06:37:14;;;;;;;11.70;2.85;;;;;;;5.35;100.00;102402.50;6082324;19;20378;-72
2024/01/23 06:39:19;;;;;;;8.40;2.58;;;;;;;5.37;100.00;102403.34;6082297;19;20010;-71
2024/01/23 06:41:24;;;;;;;18.55;3.60;;;;;;;5.38;100.00;102405.13;6082129;19;20042;-71
2024/01/23 06:43:30;;;;;;;16.33;2.92;;;;;;;5.32;100.00;102390.31;6082596;19;20060;-73
2024/01/23 06:45:34;;;;;;;11.88;3.80;;;;;;;5.28;100.00;102391.16;6086577;19;20018;-73
2024/01/23 06:47:39;;;;;;;14.15;3.33;;;;;;;5.26;100.00;102387.66;6081094;19;20010;-71
2024/01/23 06:49:45;;;;;;;12.40;3.28;;;;;;;5.25;100.00;102394.59;6081984;19;20081;-71
2024/01/23 06:51:53;;;;;;;14.23;3.00;;;;;;;5.23;100.00;102385.91;6084542;19;20098;-71
2024/01/23 06:53:59;;;;;;;11.30;2.85;;;;;;;5.25;100.00;102383.31;6079442;19;20011;-71
2024/01/23 06:56:07;;;;;;;9.60;3.35;;;;;;;5.20;100.00;102387.63;6079585;19;20393;-71
2024/01/23 06:58:09;;;;;;;9.45;2.30;;;;;;;5.14;100.00;102383.25;6085853;19;20074;-72
2024/01/23 07:00:19;;;;;;;4.53;1.98;;;;;;;5.18;100.00;102385.00;6084578;19;20003;-72
2024/01/23 07:02:25;;;;;;;15.10;3.17;;;;;;;5.14;100.00;102383.25;6080334;19;20548;-73
2024/01/23 07:04:30;;;;;;;25.42;3.33;;;;;;;5.24;100.00;102379.84;6083145;19;20014;-73
2024/01/23 07:06:36;;;;;;;11.27;3.35;;;;;;;5.25;100.00;102384.19;6083300;19;20006;-73
2024/01/23 07:08:46;;;;;;;15.77;2.63;;;;;;;5.18;100.00;102384.13;6082919;19;20070;-73
2024/01/23 07:10:51;;;;;;;9.90;2.88;;;;;;;5.12;100.00;102391.91;6077497;19;20823;-73
2024/01/23 07:12:59;;;;;;;13.93;3.72;;;;;;;5.02;100.00;102389.22;6083817;19;20034;-75
2024/01/23 07:15:04;;;;;;;22.27;3.17;;;;;;;4.97;100.00;102393.53;6079301;19;20086;-73
2024/01/23 07:17:10;;;;;;;8.95;2.75;;;;;;;4.95;100.00;102391.78;6070022;19;20010;-72
2024/01/23 07:19:15;;;;;;;14.52;4.03;;;;;;;4.90;100.00;102390.84;6078696;19;20014;-72
2024/01/23 07:21:28;;;;;;;7.85;2.63;;;;;;;4.96;100.00;102388.31;6078310;19;20752;-72
2024/01/23 07:23:36;;;;;;;13.55;2.70;;;;;;;4.84;100.00;102386.47;6073314;19;20046;-72
2024/01/23 07:25:43;;;;;;;14.45;3.45;;;;;;;4.79;100.00;102399.47;6076678;19;20032;-72
2024/01/23 07:27:49;;;;;;;23.98;3.22;;;;;;;4.76;100.00;102391.63;6074989;19;20025;-73
2024/01/23 07:29:53;;;;;;;8.05;2.30;;;;;;;4.77;100.00;102382.97;6077591;19;20021;-73
2024/01/23 07:31:59;;;;;;;11.05;3.45;;;;;;;4.70;100.00;102386.38;6072808;19;20023;-72
2024/01/23 07:34:04;;;;;;;22.77;3.80;;;;;;;4.70;100.00;102388.09;6076201;19;20467;-72
2024/01/23 07:36:09;;;;;;;16.58;3.65;;;;;;;4.66;100.00;102389.81;6076319;19;20023;-73
2024/01/23 07:38:14;;;;;;;16.27;3.33;;;;;;;4.60;100.00;102394.94;6080406;19;20098;-71
2024/01/23 07:40:19;;;;;;;8.27;2.58;;;;;;;4.61;100.00;102399.31;6081435;19;20534;-71
2024/01/23 07:42:28;;;;;;;16.67;3.20;;;;;;;4.60;100.00;102408.84;6082760;19;20003;-71
2024/01/23 07:44:39;;;;;;;10.10;3.20;;;;;;;4.57;100.00;102410.56;6080715;19;20014;-71
2024/01/23 07:46:44;;;;;;;12.93;3.25;;;;;;;4.60;100.00;102421.84;6075981;19;20537;-71
2024/01/23 07:48:50;;;;;;;12.45;2.65;;;;;;;4.55;100.00;102426.16;6075961;19;20019;-73
2024/01/23 07:51:04;;;;;;;16.33;4.10;;;;;;;4.50;100.00;102430.47;6082721;19;20015;-71
2024/01/23 07:53:14;;;;;;;16.60;3.63;;;;;;;4.47;100.00;102430.41;6076508;19;20598;-74
2024/01/23 07:55:19;;;;;;;8.82;3.03;;;;;;;4.42;100.00;102439.03;6079143;19;20015;-72
2024/01/23 07:57:30;;;;;;;12.27;2.92;;;;;;;4.39;100.00;102452.88;6081825;19;20529;-73
2024/01/23 07:59:37;;;;;;;9.27;3.05;;;;;;;4.36;100.00;102458.91;6084119;19;20477;-72
2024/01/23 08:01:43;;;;;;;18.10;3.45;;;;;;;4.33;100.00;102464.09;6076839;19;20346;-73
2024/01/23 08:03:46;;;;;;;12.23;3.80;;;;;;;4.38;100.00;102466.75;6079541;19;20014;-73
2024/01/23 08:05:52;;;;;;;12.35;2.90;;;;;;;4.27;100.00;102474.44;6079700;19;20014;-73
2024/01/23 08:07:56;;;;;;;11.93;2.75;;;;;;;4.27;100.00;102469.25;6077788;19;20017;-71
2024/01/23 08:10:02;;;;;;;9.45;2.75;;;;;;;4.45;100.00;102480.69;6082638;19;20006;-74
2024/01/23 08:12:08;;;;;;;11.77;2.35;;;;;;;4.54;100.00;102493.84;6082846;19;19998;-72
2024/01/23 08:14:17;;;;;;;11.68;2.95;;;;;;;4.67;100.00;102500.06;6083874;19;20010;-71
2024/01/23 08:16:22;;;;;;;21.17;4.20;;;;;;;4.69;100.00;102500.94;6077315;19;20801;-72
2024/01/23 08:18:24;;;;;;;15.82;4.00;;;;;;;4.78;100.00;102504.50;6081400;19;20527;-72
2024/01/23 08:20:29;;;;;;;10.80;4.70;;;;;;;4.83;100.00;102512.38;6082386;19;20034;-72
2024/01/23 08:22:34;;;;;;;11.68;3.17;;;;;;;4.86;100.00;102512.41;6079677;19;20021;-73
2024/01/23 08:24:40;;;;;;;10.90;3.25;;;;;;;4.89;100.00;102512.41;6078832;19;20023;-74
2024/01/23 08:26:45;;;;;;;16.73;4.55;;;;;;;4.90;100.00;102523.72;6082437;19;20041;-73
2024/01/23 08:28:50;;;;;;;10.15;3.38;;;;;;;4.89;100.00;102521.97;6081174;19;20019;-73
2024/01/23 08:31:02;;;;;;;19.58;4.47;;;;;;;4.97;100.00;102533.34;6078582;19;20841;-73
2024/01/23 08:33:08;;;;;;;15.82;4.25;;;;;;;4.97;100.00;102541.16;6083009;19;20368;-74
2024/01/23 08:35:15;;;;;;;9.02;3.90;;;;;;;4.93;100.00;102545.47;6082360;19;20078;-73
2024/01/23 08:37:21;;;;;;;30.45;4.88;;;;;;;4.94;100.00;102539.41;6079686;19;20042;-72
2024/01/23 08:39:26;;;;;;;7.82;3.65;;;;;;;5.02;100.00;102542.06;6077582;19;20383;-72
2024/01/23 08:41:36;;;;;;;20.05;3.20;;;;;;;5.03;100.00;102536.91;6081592;19;20048;-72
2024/01/23 08:43:39;;;;;;;14.13;3.25;;;;;;;5.06;100.00;102541.25;6078907;19;20003;-72
2024/01/23 08:45:44;;;;;;;13.95;4.53;;;;;;;5.07;100.00;102538.66;6074099;19;20235;-71
2024/01/23 08:47:52;;;;;;;13.52;3.58;;;;;;;5.07;100.00;102543.00;6079157;19;20024;-73
2024/01/23 08:49:57;;;;;;;13.65;3.28;;;;;;;5.08;100.00;102542.13;6081110;19;20139;-74
2024/01/23 08:52:02;;;;;;;15.43;4.15;;;;;;;5.10;100.00;102536.94;6078044;19;20082;-73
2024/01/23 08:54:08;;;;;;;15.00;4.28;;;;;;;5.11;100.00;102547.41;6075877;19;20061;-71
2024/01/23 08:56:14;;;;;;;12.35;3.78;;;;;;;5.13;100.00;102532.63;6079784;19;20010;-72
2024/01/23 08:58:20;;;;;;;18.73;4.55;;;;;;;5.18;100.00;102524.84;6077965;19;20646;-72
2024/01/23 09:00:22;;;;;;;8.27;3.53;;;;;;;5.19;100.00;102537.03;6079097;19;20468;-71
2024/01/23 09:02:31;;;;;;;9.23;3.72;;;;;;;5.26;100.00;102523.19;6083444;19;20027;-72
2024/01/23 09:04:38;;;;;;;11.23;4.28;;;;;;;5.26;100.00;102528.41;6082880;19;20474;-72
2024/01/23 09:06:43;;;;;;;17.17;4.38;;;;;;;5.31;100.00;102518.03;6075078;19;20034;-72
2024/01/23 09:08:49;;;;;;;6.65;3.00;;;;;;;5.39;100.00;102524.16;6079228;19;20015;-73
2024/01/23 09:10:54;;;;;;;13.13;3.75;;;;;;;5.40;100.00;102526.78;6079292;19;20078;-73
2024/01/23 09:12:59;;;;;;;8.95;3.50;;;;;;;5.41;100.00;102528.53;6080880;19;20843;-75
2024/01/23 09:15:05;;;;;;;16.67;4.63;;;;;;;5.46;100.00;102539.00;6083238;19;20018;-73
2024/01/23 09:17:11;;;;;;;11.85;3.90;;;;;;;5.50;100.00;102543.38;6083237;19;20643;-73
2024/01/23 09:19:16;;;;;;;13.25;3.70;;;;;;;5.49;100.00;102541.63;6084293;19;20330;-74
2024/01/23 09:21:25;;;;;;;16.17;3.33;;;;;;;5.54;100.00;102536.47;6080972;19;21175;-75
2024/01/23 09:23:30;;;;;;;6.93;3.47;;;;;;;5.58;100.00;102531.28;6086921;19;20014;-74
2024/01/23 09:25:35;;;;;;;19.15;3.65;;;;;;;5.64;100.00;102525.22;6082997;19;20031;-71
2024/01/23 09:27:40;;;;;;;13.70;3.67;;;;;;;5.69;100.00;102529.63;6080341;19;20023;-73
2024/01/23 09:29:56;;;;;;;8.50;2.90;;;;;;;5.77;100.00;102524.47;6083256;19;20019;-73
2024/01/23 09:32:02;;;;;;;16.08;4.25;;;;;;;5.82;100.00;102524.47;6083696;19;20775;-73
2024/01/23 09:34:08;;;;;;;15.93;3.15;;;;;;;5.83;100.00;102527.09;6081358;19;20130;-74
2024/01/23 09:36:16;;;;;;;11.13;3.22;;;;;;;5.87;100.00;102522.75;6078147;19;20046;-73
2024/01/23 09:38:22;;;;;;;9.10;2.67;;;;;;;5.96;100.00;102517.63;6084305;19;20025;-73
2024/01/23 09:40:27;;;;;;;9.68;3.50;;;;;;;5.96;100.00;102512.41;6083394;19;20028;-74